Flight Track Log - Related Links

Times and Time Zones

All times are in EDT time to prevent confusion due to time zone crossing. See the DAL268 flight status page for this flight to view local times or setup timezone preferences in your user account.

Time Position Orientation Groundspeed Altitude Reporting Facility
EDT Latitude Longitude Course Direction KTS MPH feet Rate Location/Type
Fri 14:27:08 37.6500 -122.3333 35° Northeast 193 222 1,900  Level Northern Cal TRACON
Fri 14:28:08 37.7000 -122.2667 47° Northeast 256 295 3,800 2,356 Climbing Northern Cal TRACON
Fri 14:29:00 37.7569 -122.2264 38° Northeast  Level FlightAware Approximate
Fri 14:29:51 37.7978 -122.1608 41° Northeast 288 331 8,300  Level Oakland Center
Fri 14:30:00 37.8596 -122.1238 38° Northeast  Level FlightAware Approximate
Fri 14:30:53 37.8669 -122.0967 36° Northeast 305 351 10,600  Level Oakland Center
Fri 14:31:00 37.9623 -122.0211 38° Northeast  Level FlightAware Approximate
Fri 14:31:54 37.9475 -122.0203 37° Northeast 361 415 11,500  Level Oakland Center
Fri 14:32:00 38.0581 -121.9179 35° Northeast  Level FlightAware Approximate
Fri 14:32:56 38.0381 -121.9356 36° Northeast 394 453 13,900  Level Oakland Center
Fri 14:33:57 38.1314 -121.8467 37° Northeast 414 476 16,000 1,902 Climbing Oakland Center
Fri 14:34:59 38.2331 -121.7144 46° Northeast 437 503 17,800 1,854 Climbing Oakland Center
Fri 14:36:00 38.3139 -121.5892 51° Northeast 456 525 19,800 1,854 Climbing Oakland Center
Fri 14:37:02 38.4031 -121.4608 48° Northeast 472 543 21,600 1,561 Climbing Oakland Center
Fri 14:38:03 38.4850 -121.3278 52° Northeast 484 557 23,000 1,415 Climbing Oakland Center
Fri 14:39:05 38.5703 -121.1878 52° Northeast 495 570 24,500 1,463 Climbing Oakland Center
Fri 14:40:06 38.6717 -121.0261 51° Northeast 513 590 26,000 1,268 Climbing Oakland Center
Fri 14:41:08 38.7614 -120.8800 52° Northeast 522 601 27,100 1,024 Climbing Oakland Center
Fri 14:42:09 38.8533 -120.7283 52° Northeast 536 617 28,100 1,268 Climbing Oakland Center
Fri 14:43:11 38.9467 -120.5758 52° Northeast 543 625 29,700 1,355 Climbing Oakland Center
Fri 14:44:13 39.0392 -120.4242 52° Northeast 541 623 30,900 1,317 Climbing Oakland Center
Fri 14:45:14 39.1294 -120.2717 53° Northeast 537 618 32,400 1,366 Climbing Oakland Center
Fri 14:46:16 39.2328 -120.1028 52° Northeast 530 610 33,700 1,171 Climbing Oakland Center
Fri 14:47:17 39.3242 -119.9528 52° Northeast 531 611 34,800 634 Climbing Oakland Center
Fri 14:48:19 39.4119 -119.8044 53° Northeast 519 597 35,000 98 Climbing Oakland Center
Fri 14:49:20 39.5014 -119.6533 52° Northeast 525 604 35,000  Level Oakland Center
Fri 14:50:22 39.5894 -119.5025 53° Northeast 526 605 35,000  Level Oakland Center
Fri 14:51:23 39.6800 -119.3497 52° Northeast 532 612 35,000  Level Oakland Center
Fri 14:52:25 39.7686 -119.1969 53° Northeast 529 609 35,000  Level Oakland Center
Fri 14:53:26 39.8581 -119.0447 53° Northeast 526 605 35,000  Level Oakland Center
Fri 14:54:28 39.9461 -118.8903 53° Northeast 526 605 35,000  Level Oakland Center
Fri 14:55:29 40.0347 -118.7375 53° Northeast 525 604 35,000  Level Oakland Center
Fri 14:56:31 40.1319 -118.5464 56° Northeast 526 605 35,000  Level Oakland Center
Fri 14:57:32 40.1842 -118.3686 69° East 523 602 35,000  Level Oakland Center
Fri 14:58:34 40.2308 -118.1881 71° East 522 601 35,000  Level Oakland Center
Fri 14:59:35 40.2778 -118.0181 70° East 523 602 35,000  Level Oakland Center
Fri 15:00:36 40.3247 -117.8469 70° East 521 600 35,000  Level Oakland Center
Fri 15:01:38 40.3775 -117.6469 71° East 518 596 35,000  Level Oakland Center
Fri 15:02:39 40.4236 -117.4753 71° East 520 598 35,000  Level Oakland Center
Fri 15:03:41 40.4778 -117.2744 70° East 521 600 35,000  Level Oakland Center
Fri 15:04:42 40.5242 -117.1025 70° East 523 602 35,000  Level Oakland Center
Fri 15:05:52 40.5761 -116.8956 72° East 521 600 35,000  Level Salt Lake Center
Fri 15:06:54 40.6239 -116.7225 70° East 518 596 35,000  Level Salt Lake Center
Fri 15:07:56 40.6781 -116.5233 70° East 516 594 35,000  Level Salt Lake Center
Fri 15:08:58 40.7228 -116.3528 71° East 513 590 35,000  Level Salt Lake Center
Fri 15:10:00 40.7769 -116.1533 70° East 516 594 35,000  Level Salt Lake Center
Fri 15:11:02 40.8228 -115.9825 70° East 515 593 35,000  Level Salt Lake Center
Fri 15:12:04 40.8747 -115.7839 71° East 513 590 35,000  Level Salt Lake Center
Fri 15:13:06 40.9192 -115.6133 71° East 514 592 35,000  Level Salt Lake Center
Fri 15:14:08 40.9700 -115.4139 71° East 512 589 35,000  Level Salt Lake Center
Fri 15:15:10 41.0142 -115.2439 71° East 510 587 35,000  Level Salt Lake Center
Fri 15:16:12 41.0569 -115.0714 72° East 513 590 35,000  Level Salt Lake Center
Fri 15:17:14 41.1086 -114.8733 71° East 509 586 35,000  Level Salt Lake Center
Fri 15:18:16 41.1503 -114.7047 72° East 509 586 35,000  Level Salt Lake Center
Fri 15:19:18 41.1933 -114.5283 72° East 506 582 35,000  Level Salt Lake Center
Fri 15:20:20 41.2464 -114.3169 71° East 503 579 35,000  Level Salt Lake Center
Fri 15:21:22 41.2886 -114.1408 72° East 502 578 35,000  Level Salt Lake Center
Fri 15:22:24 41.3325 -113.9644 72° East 503 579 35,000  Level Salt Lake Center
Fri 15:23:26 41.3681 -113.7869 75° East 499 574 35,000  Level Salt Lake Center
Fri 15:24:29 41.3808 -113.6033 85° East 498 573 35,000  Level Salt Lake Center
Fri 15:25:31 41.3903 -113.4217 86° East 495 570 35,000  Level Salt Lake Center
Fri 15:26:33 41.4044 -113.2039 85° East 493 567 35,000  Level Salt Lake Center
Fri 15:27:35 41.4161 -113.0222 85° East 493 567 35,000  Level Salt Lake Center
Fri 15:28:37 41.4261 -112.8419 86° East 490 564 35,000  Level Salt Lake Center
Fri 15:29:39 41.4375 -112.6611 85° East 489 563 35,000  Level Salt Lake Center
Fri 15:30:41 41.4467 -112.4806 86° East 489 563 35,000  Level Salt Lake Center
Fri 15:31:43 41.4567 -112.2997 86° East 488 562 35,000  Level Salt Lake Center
Fri 15:32:45 41.4689 -112.0825 86° East 487 560 35,000  Level Salt Lake Center
Fri 15:33:47 41.4781 -111.9019 86° East 487 560 35,000  Level Salt Lake Center
Fri 15:34:49 41.4881 -111.7211 86° East 486 559 35,000  Level Salt Lake Center
Fri 15:35:51 41.4964 -111.5400 86° East 486 559 35,000  Level Salt Lake Center
Fri 15:36:53 41.5053 -111.3597 86° East 486 559 35,000  Level Salt Lake Center
Fri 15:37:55 41.5119 -111.1814 87° East 481 554 35,000  Level Salt Lake Center
Fri 15:38:57 41.5203 -111.0025 86° East 483 556 35,000  Level Salt Lake Center
Fri 15:39:59 41.5300 -110.7942 86° East 485 558 35,000  Level Salt Lake Center
Fri 15:41:01 41.5364 -110.6242 87° East 482 555 35,000  Level Salt Lake Center
Fri 15:42:03 41.5442 -110.4242 87° East 484 557 35,000  Level Salt Lake Center
Fri 15:43:05 41.5500 -110.2547 87° East 479 551 35,000  Level Salt Lake Center
Fri 15:44:07 41.5578 -110.0547 87° East 482 555 35,000 242 Level Salt Lake Center
Fri 15:45:09 41.5633 -109.8836 87° East 483 556 35,500 823 Climbing Salt Lake Center
Fri 15:46:11 41.5706 -109.6850 87° East 480 552 36,700 726 Climbing Salt Lake Center
Fri 15:47:13 41.5764 -109.5150 87° East 478 550 37,000 145 Climbing Salt Lake Center
Fri 15:48:15 41.5817 -109.3436 88° East 480 552 37,000  Level Salt Lake Center
Fri 15:49:17 41.5892 -109.1425 87° East 478 550 37,000  Level Salt Lake Center
Fri 15:50:19 41.5947 -108.9683 87° East 479 551 37,000  Level Salt Lake Center
Fri 15:51:21 41.6097 -108.7700 84° East 477 549 37,000  Level Salt Lake Center
Fri 15:52:23 41.6225 -108.6006 84° East 478 550 37,000  Level Salt Lake Center
Fri 15:53:25 41.6344 -108.4322 85° East 477 549 37,000  Level Salt Lake Center
Fri 15:54:27 41.6481 -108.2356 85° East 475 547 37,000  Level Salt Lake Center
Fri 15:55:29 41.6617 -108.0653 84° East 480 552 37,000  Level Salt Lake Center
Fri 15:56:31 41.6764 -107.8689 84° East 478 550 37,000  Level Salt Lake Center
Fri 15:57:13 41.6833 -107.7539 85° East 478 550 37,000  Level Denver Center
Fri 15:58:15 41.6958 -107.5564 85° East 478 550 37,000  Level Denver Center
Fri 15:59:18 41.7075 -107.3861 85° East 480 552 37,000  Level Denver Center
Fri 16:00:20 41.7200 -107.1883 85° East 479 551 37,000  Level Denver Center
Fri 16:01:22 41.7308 -107.0197 85° East 477 549 37,000  Level Denver Center
Fri 16:02:24 41.7436 -106.8236 85° East 474 545 37,000  Level Denver Center
Fri 16:03:26 41.7531 -106.6533 86° East 478 550 37,000  Level Denver Center
Fri 16:04:28 41.7636 -106.4836 85° East 477 549 37,000  Level Denver Center
Fri 16:05:30 41.7747 -106.2914 86° East 469 540 37,000  Level Denver Center
Fri 16:06:32 41.7844 -106.1242 85° East 469 540 37,000  Level Denver Center
Fri 16:07:34 41.7950 -105.9286 86° East 471 542 37,000  Level Denver Center
Fri 16:08:36 41.8014 -105.7594 87° East 474 545 37,000  Level Denver Center
Fri 16:09:38 41.8106 -105.5642 86° East 472 543 37,000  Level Denver Center
Fri 16:10:40 41.8192 -105.3986 86° East 469 540 37,000  Level Denver Center
Fri 16:11:42 41.8278 -105.2025 87° East 472 543 37,000  Level Denver Center
Fri 16:12:44 41.8342 -105.0628 86° East 473 544 37,000  Level Denver Center
Fri 16:13:47 41.8444 -104.8411 86° East 470 541 37,000  Level Denver Center
Fri 16:15:01 41.8503 -104.6756 87° East 468 539 37,000  Level Denver Center
Fri 16:16:03 41.8586 -104.4797 87° East 471 542 37,000  Level Denver Center
Fri 16:17:05 41.8667 -104.2556 87° East 474 545 37,000  Level Denver Center
Fri 16:18:07 41.8733 -104.0878 87° East 473 544 37,000  Level Denver Center
Fri 16:19:09 41.8800 -103.8919 87° East 472 543 37,000  Level Denver Center
Fri 16:21:13 41.8894 -103.5856 88° East 471 542 37,000  Level Denver Center
Fri 16:22:16 41.9083 -103.3669 83° East 464 534 37,000  Level Denver Center
Fri 16:23:18 41.9372 -103.1769 78° East 465 535 37,000  Level Denver Center
Fri 16:24:20 41.9586 -103.0147 80° East 463 533 37,000  Level Denver Center
Fri 16:25:22 41.9847 -102.8267 79° East 460 529 37,000  Level Denver Center
Fri 16:26:24 42.0064 -102.6653 80° East 459 528 37,000  Level Denver Center
Fri 16:27:26 42.0286 -102.5028 80° East 463 533 37,000  Level Denver Center
Fri 16:28:28 42.0533 -102.3136 80° East 461 531 37,000  Level Denver Center
Fri 16:29:30 42.0772 -102.1308 80° East 459 528 37,000  Level Denver Center
Fri 16:30:32 42.0989 -101.9669 80° East 462 532 37,000  Level Denver Center
Fri 16:32:36 42.1453 -101.6139 80° East 460 529 37,000  Level Denver Center
Fri 16:33:38 42.1611 -101.4778 81° East 460 529 37,000  Level Denver Center
Fri 16:34:41 42.1878 -101.2608 81° East 460 529 37,000  Level Denver Center
Fri 16:35:43 42.2078 -101.0961 81° East 463 533 37,000  Level Denver Center
Fri 16:36:45 42.2294 -100.9053 81° East 461 531 37,000  Level Denver Center
Fri 16:37:47 42.2492 -100.7406 81° East 463 533 37,000  Level Denver Center
Fri 16:38:49 42.2717 -100.5469 81° East 466 536 37,000  Level Denver Center
Fri 16:39:51 42.2911 -100.3817 81° East 466 536 37,000  Level Denver Center
Fri 16:40:53 42.3131 -100.1847 81° East 470 541 37,000  Level Denver Center
Fri 16:41:55 42.3308 -100.0153 82° East 474 545 37,000  Level Denver Center
Fri 16:42:57 42.3531 -99.8222 81° East 470 541 37,000  Level Denver Center
Fri 16:43:59 42.3692 -99.6717 82° East 473 544 37,000  Level Denver Center
Fri 16:45:01 42.3922 -99.4569 82° East 478 550 37,000  Level Denver Center
Fri 16:46:31 42.4186 -99.2075 82° East 480 552 37,000  Level Minneapolis Center
Fri 16:47:33 42.4367 -99.0278 82° East 480 552 37,000  Level Minneapolis Center
Fri 16:48:35 42.4547 -98.8492 82° East 480 552 37,000  Level Minneapolis Center
Fri 16:49:37 42.4714 -98.6697 83° East 479 551 37,000  Level Minneapolis Center
Fri 16:50:39 42.4828 -98.4544 86° East 477 549 37,000  Level Minneapolis Center
Fri 16:51:41 42.4917 -98.2731 86° East 480 552 37,000  Level Minneapolis Center
Fri 16:52:43 42.4992 -98.0911 87° East 483 556 37,000  Level Minneapolis Center
Fri 16:53:45 42.5083 -97.9111 86° East 480 552 37,000  Level Minneapolis Center
Fri 16:54:47 42.5156 -97.7339 87° East 479 551 37,000  Level Minneapolis Center
Fri 16:55:49 42.5233 -97.5539 87° East 478 550 37,000  Level Minneapolis Center
Fri 16:56:51 42.5322 -97.3367 87° East 479 551 37,000  Level Minneapolis Center
Fri 16:57:54 42.5386 -97.1564 87° East 478 550 37,000  Level Minneapolis Center
Fri 16:58:56 42.5453 -96.9769 87° East 477 549 37,000  Level Minneapolis Center
Fri 16:59:58 42.5525 -96.7967 87° East 478 550 37,000  Level Minneapolis Center
Fri 17:01:00 42.5578 -96.6158 88° East 478 550 37,000  Level Minneapolis Center
Fri 17:02:02 42.5639 -96.4319 87° East 483 556 37,000  Level Minneapolis Center
Fri 17:03:04 42.5700 -96.2481 87° East 485 558 37,000  Level Minneapolis Center
Fri 17:04:06 42.5761 -96.0247 88° East 491 565 37,000  Level Minneapolis Center
Fri 17:05:08 42.5811 -95.8361 88° East 498 573 37,000  Level Minneapolis Center
Fri 17:06:10 42.5858 -95.6442 88° East 505 581 37,000  Level Minneapolis Center
Fri 17:07:12 42.5911 -95.4492 88° East 512 589 37,000  Level Minneapolis Center
Fri 17:08:14 42.5950 -95.2542 88° East 516 594 37,000  Level Minneapolis Center
Fri 17:09:16 42.5992 -95.0581 88° East 519 597 37,000  Level Minneapolis Center
Fri 17:10:18 42.6031 -94.8178 89° East 526 605 37,000  Level Minneapolis Center
Fri 17:11:21 42.6067 -94.6189 89° East 528 608 37,000  Level Minneapolis Center
Fri 17:12:23 42.6078 -94.4158 90° East 539 620 37,000  Level Minneapolis Center
Fri 17:13:25 42.6106 -94.2153 89° East 539 620 37,000  Level Minneapolis Center
Fri 17:14:27 42.6111 -94.0139 90° East 539 620 37,000  Level Minneapolis Center
Fri 17:15:29 42.6128 -93.8128 89° East 539 620 37,000  Level Minneapolis Center
Fri 17:16:31 42.6142 -93.5694 89° East 541 623 37,000 242 Level Minneapolis Center
Fri 17:17:33 42.6153 -93.3661 90° East 545 627 37,500 726 Climbing Minneapolis Center
Fri 17:18:35 42.6167 -93.1636 89° East 543 625 38,500 726 Climbing Minneapolis Center
Fri 17:19:37 42.6164 -92.9639 90° East 539 620 39,000 242 Climbing Minneapolis Center
Fri 17:20:39 42.6153 -92.7639 90° East 535 616 39,000  Level Minneapolis Center
Fri 17:21:41 42.6153 -92.5197 90° East 541 623 39,000  Level Minneapolis Center
Fri 17:22:43 42.6131 -92.3167 91° East 545 627 39,000  Level Minneapolis Center
Fri 17:23:46 42.6114 -92.1142 91° East 545 627 39,000  Level Minneapolis Center
Fri 17:24:48 42.6092 -91.9114 91° East 545 627 39,000  Level Minneapolis Center
Fri 17:25:50 42.6064 -91.6692 91° East 549 632 39,000  Level Minneapolis Center
Fri 17:26:52 42.6028 -91.4681 91° East 551 634 39,000  Level Minneapolis Center
Fri 17:27:54 42.5989 -91.2678 91° East 546 628 39,000  Level Minneapolis Center
Fri 17:28:56 42.5944 -91.0269 91° East 540 621 39,000  Level Minneapolis Center
Fri 17:29:58 42.5906 -90.8228 91° East 544 626 39,000  Level Minneapolis Center
Fri 17:31:00 42.5867 -90.6033 91° East 543 625 39,000  Level Minneapolis Center
Fri 17:33:29 42.5767 -90.0875 91° East 554 638 39,000  Level Chicago Center
Fri 17:34:31 42.5675 -89.8758 93° East 557 641 39,000  Level Chicago Center
Fri 17:35:33 42.5628 -89.6661 92° East 561 646 39,000  Level Chicago Center
Fri 17:36:35 42.5544 -89.4558 93° East 562 647 39,000  Level Chicago Center
Fri 17:37:37 42.5483 -89.2439 92° East 567 652 39,000  Level Chicago Center
Fri 17:38:40 42.5408 -89.0342 93° East 564 649 39,000  Level Chicago Center
Fri 17:39:42 42.5314 -88.7822 93° East 563 648 39,000  Level Chicago Center
Fri 17:40:44 42.5239 -88.5747 93° East 559 643 39,000  Level Chicago Center
Fri 17:41:46 42.5156 -88.3692 93° East 553 636 39,000  Level Chicago Center
Fri 17:42:48 42.5072 -88.1644 93° East 549 632 39,000  Level Chicago Center
Fri 17:43:50 42.4997 -87.9589 93° East 550 633 39,000  Level Chicago Center
Fri 17:44:52 42.4989 -87.7350 90° East 546 628 39,000  Level Chicago Center
Fri 17:45:54 42.4986 -87.5292 90° East 547 629 39,000  Level Chicago Center
Fri 17:46:56 42.4975 -87.2831 90° East 547 629 39,000  Level Chicago Center
Fri 17:47:59 42.4964 -87.0772 90° East 548 631 39,000  Level Chicago Center
Fri 17:49:01 42.4942 -86.8722 91° East 546 628 39,000  Level Chicago Center
Fri 17:50:03 42.4914 -86.6500 91° East 544 626 39,000  Level Chicago Center
Fri 17:51:05 42.4892 -86.4392 91° East 548 631 39,000  Level Chicago Center
Fri 17:52:07 42.4858 -86.2347 91° East 549 632 39,000  Level Chicago Center
Fri 17:53:09 42.4825 -86.0314 91° East 546 628 39,000  Level Chicago Center
Fri 17:54:11 42.4792 -85.8253 91° East 551 634 39,000  Level Chicago Center
Fri 17:55:13 42.4758 -85.6194 91° East 552 635 39,000  Level Chicago Center
Fri 17:56:15 42.4706 -85.3711 92° East 554 638 39,000  Level Chicago Center
Fri 17:57:17 42.4661 -85.1653 92° East 553 636 39,000  Level Chicago Center
Fri 17:58:20 42.4608 -84.9606 92° East 550 633 39,000  Level Chicago Center
Fri 17:59:22 42.4556 -84.7556 92° East 548 631 39,000  Level Chicago Center
Fri 18:00:24 42.4486 -84.5514 93° East 546 628 39,000  Level Chicago Center
Fri 18:01:26 42.4419 -84.3086 92° East 542 624 39,000  Level Chicago Center
Fri 18:02:08 42.4367 -84.1675 93° East 543 625 39,000  Level Cleveland Center
Fri 18:03:10 42.4300 -83.9642 92° East 539 620 39,000  Level Cleveland Center
Fri 18:04:12 42.4225 -83.7614 93° East 539 620 39,000  Level Cleveland Center
Fri 18:05:14 42.4147 -83.5500 93° East 536 617 39,000  Level Cleveland Center
Fri 18:06:16 42.4072 -83.3444 93° East 540 621 39,000  Level Cleveland Center
Fri 18:07:18 42.3975 -83.1433 94° East 537 618 39,000  Level Cleveland Center
Fri 18:08:20 42.3886 -82.9447 93° East 532 612 39,000  Level Cleveland Center
Fri 18:09:22 42.3800 -82.7461 93° East 530 610 39,000  Level Cleveland Center
Fri 18:10:24 42.3697 -82.5100 93° East 527 606 39,000  Level Cleveland Center
Fri 18:11:26 42.3628 -82.3144 93° East 524 603 39,000  Level Cleveland Center
Fri 18:12:29 42.3542 -82.1125 93° East 523 602 39,000  Level Cleveland Center
Fri 18:13:31 42.3461 -81.9147 93° East 522 601 39,000  Level Cleveland Center
Fri 18:14:33 42.3367 -81.7194 94° East 518 596 39,000  Level Cleveland Center
Fri 18:15:35 42.3281 -81.5239 93° East 516 594 39,000  Level Cleveland Center
Fri 18:16:37 42.3181 -81.3283 94° East 515 593 39,000  Level Cleveland Center
Fri 18:17:39 42.3086 -81.1339 94° East 514 592 39,000  Level Cleveland Center
Fri 18:18:41 42.2961 -80.9078 94° East 513 590 39,000  Level Cleveland Center
Fri 18:19:43 42.2853 -80.7142 94° East 512 589 39,000  Level Cleveland Center
Fri 18:20:45 42.2647 -80.5264 98° East 506 582 39,000  Level Cleveland Center
Fri 18:21:47 42.2356 -80.3361 102° East 511 588 39,000  Level Cleveland Center
Fri 18:22:49 42.2044 -80.1472 102° East 512 589 39,000  Level Cleveland Center
Fri 18:23:52 42.1733 -79.9547 102° East 511 588 39,000  Level Cleveland Center
Fri 18:24:54 42.1425 -79.7736 103° East 504 580 39,000  Level Cleveland Center
Fri 18:25:56 42.1122 -79.5878 102° East 510 587 39,000  Level Cleveland Center
Fri 18:26:58 42.0761 -79.3669 102° East 506 582 39,000  Level Cleveland Center
Fri 18:28:00 42.0444 -79.1847 103° East 503 579 39,000  Level Cleveland Center
Fri 18:29:02 42.0147 -79.0017 102° East 505 581 39,000  Level Cleveland Center
Fri 18:30:04 41.9833 -78.8231 103° East 496 571 39,000  Level Cleveland Center
Fri 18:31:06 41.9517 -78.6428 103° East 496 571 39,000  Level Cleveland Center
Fri 18:32:08 41.9133 -78.4267 103° East 497 572 39,000  Level Cleveland Center
Fri 18:33:10 41.8817 -78.2489 103° East 496 571 39,000 -48 Level Cleveland Center
Fri 18:34:12 41.8503 -78.0725 103° East 490 564 38,900 -242 Descending Cleveland Center
Fri 18:35:14 41.8183 -77.8997 104° East 482 555 38,500 -629 Descending Cleveland Center
Fri 18:36:16 41.7881 -77.7325 104° East 470 541 37,600 -1,536 Descending Cleveland Center
Fri 18:37:19 41.7578 -77.5672 104° East 460 529 35,300 -1,248 Descending Cleveland Center
Fri 18:38:21 41.7219 -77.3803 104° East 462 532 35,000 -677 Descending Cleveland Center
Fri 18:39:23 41.6917 -77.2172 104° East 458 527 33,900 -1,355 Descending Cleveland Center
Fri 18:40:25 41.6556 -77.0606 107° East 445 512 32,200 -1,438 Descending Cleveland Center
Fri 18:41:24 41.6106 -76.9081 111° Southeast 438 504 31,000 -1,261 Descending New York Center
Fri 18:42:24 41.5742 -76.7661 109° East 414 476 29,700 -1,328 Descending New York Center
Fri 18:43:26 41.5353 -76.6267 110° East 388 447 28,300 -1,400 Descending New York Center
Fri 18:44:24 41.5019 -76.5019 110° East 366 421 26,900 -1,678 Descending New York Center
Fri 18:45:24 41.4681 -76.3772 110° East 354 407 25,000 -1,736 Descending New York Center
Fri 18:46:25 41.4364 -76.2528 109° East 354 407 23,400 -992 Descending New York Center
Fri 18:47:25 41.3983 -76.1308 113° Southeast 354 407 23,000 -198 Descending New York Center
Fri 18:48:26 41.3639 -76.0147 112° Southeast 348 400 23,000  Level New York Center
Fri 18:49:25 41.3350 -75.9131 111° Southeast 338 389 23,000  Level New York Center
Fri 18:50:25 41.3006 -75.7944 111° Southeast 338 389 23,000  Level New York Center
Fri 18:51:26 41.2622 -75.6672 112° Southeast 338 389 23,000  Level New York Center
Fri 18:52:26 41.2272 -75.5544 112° Southeast 344 396 23,000  Level New York Center
Fri 18:53:24 41.1881 -75.4414 115° Southeast 344 396 23,000  Level New York Center
Fri 18:54:25 41.1508 -75.3258 113° Southeast 344 396 23,000 -50 Level New York Center
Fri 18:55:25 41.1094 -75.2100 115° Southeast 344 396 22,900 -645 Descending New York Center
Fri 18:56:26 41.0719 -75.0975 114° Southeast 344 396 21,700 -1,412 Descending New York Center
Fri 18:57:24 41.0322 -74.9850 115° Southeast 339 390 20,100 -1,361 Descending New York Center
Fri 18:58:25 40.9969 -74.8647 111° Southeast 328 377 19,000 -550 Descending New York Center
Fri 18:59:24 40.9839 -74.7567 99° East 313 360 19,000  Level New York Center
Fri 19:00:25 40.9694 -74.6294 99° East 313 360 19,000  Level New York Center
Fri 19:01:24 40.9583 -74.5217 98° East 319 367 19,000  Level New York Center
Fri 19:02:25 40.9456 -74.3944 98° East 319 367 19,000  Level New York Center
Fri 19:03:26 40.9322 -74.2894 100° East 319 367 19,000  Level New York Center
Fri 19:04:24 40.9189 -74.1708 98° East 319 367 19,000 -403 Level New York Center
Fri 19:05:25 40.8461 -74.0986 143° Southeast 287 330 18,200 -1,180 Descending New York Center
Fri 19:06:26 40.7531 -74.0747 169° South 300 345 16,600 -1,468 Descending New York Center
Fri 19:07:44 40.6333 -74.0500 171° South 321 369 14,800 -1,417 Descending New York TRACON
Fri 19:08:50 40.5500 -74.0167 163° South 307 353 13,200 -1,429 Descending New York TRACON
Fri 19:09:50 40.4833 -73.9500 143° Southeast 298 343 11,800 -1,400 Descending New York TRACON
Fri 19:10:50 40.4167 -73.8833 143° Southeast 289 333 10,400 -1,650 Descending New York TRACON
Fri 19:11:50 40.3667 -73.8167 135° Southeast 277 319 8,500 -2,105 Descending New York TRACON
Fri 19:12:44 40.3333 -73.7333 118° Southeast 286 329 6,400 -2,105 Descending New York TRACON
Fri 19:13:44 40.3667 -73.6333 66° East 278 320 4,500 -1,200 Descending New York TRACON
Fri 19:14:44 40.4000 -73.5667 57° Northeast 280 322 4,000 -238 Descending New York TRACON
Fri 19:15:50 40.4833 -73.5167 25° Northeast 280 322 4,000  Level New York TRACON
Fri 19:16:44 40.5500 -73.5167 360° North 277 319 4,000 -500 Level New York TRACON
Fri 19:17:50 40.6333 -73.5333 351° North 269 310 3,000 -952 Descending New York TRACON
Fri 19:18:50 40.7167 -73.5333 360° North 259 298 2,000 -526 Descending New York TRACON
Fri 19:19:44 40.7667 -73.5333 360° North 227 261 2,000  Level New York TRACON
Fri 19:20:44 40.7833 -73.5833 294° West 190 219 2,000  Level New York TRACON
Fri 19:21:38 40.7667 -73.6500 252° West 185 213 2,000 -50 Level New York TRACON
Fri 19:22:44 40.7333 -73.6833 217° Southwest 145 167 1,900 -350 Descending New York TRACON
Fri 19:23:38 40.7000 -73.7167 217° Southwest 127 146 1,300 -650 Descending New York TRACON
Fri 19:24:44 40.6667 -73.7333 201° Southwest 124 143 600 -636 Descending New York TRACON

Login

Don't have an account? Register now (free) for customized features, flight alerts, and more!